NVIDIA Debt to Equity Ratio 2006-2018 | NVDA

Current and historical debt to equity ratio values for NVIDIA (NVDA) over the last 10 years. The debt/equity ratio can be defined as a measure of a company's financial leverage calculated by dividing its long-term debt by stockholders' equity. NVIDIA debt/equity for the three months ending October 31, 2018 was 0.21.
NVIDIA Debt/Equity Ratio Historical Data
Date Long Term Debt Shareholder's Equity Debt to Equity Ratio
2018-10-31 $1.99B $9.48B 0.21
2018-07-31 $1.99B $8.80B 0.23
2018-04-30 $1.99B $7.72B 0.26
2018-01-31 $1.99B $7.47B 0.27
2017-10-31 $1.99B $6.35B 0.31
2017-07-31 $1.99B $5.97B 0.33
2017-04-30 $2.00B $6.13B 0.33
2017-01-31 $2.01B $5.76B 0.35
2016-10-31 $2.03B $5.32B 0.38
2016-07-31 $0.08B $4.48B 0.02
2016-04-30 $0.09B $4.20B 0.02
2016-01-31 $0.10B $4.47B 0.02
2015-10-31 $1.42B $4.47B 0.32
2015-07-31 $1.41B $4.19B 0.34
2015-04-30 $1.40B $4.56B 0.31
2015-01-31 $1.40B $4.42B 0.32
2014-10-31 $1.39B $4.21B 0.33
2014-07-31 $1.39B $4.31B 0.32
2014-04-30 $1.38B $4.17B 0.33
2014-01-31 $1.37B $4.46B 0.31
2013-10-31 $0.02B $4.32B 0.00
2013-07-31 $0.02B $4.17B 0.00
2013-04-30 $0.02B $4.83B 0.00
2013-01-31 $0.02B $4.83B 0.00
2012-10-31 $0.02B $4.72B 0.00
2012-07-31 $0.02B $4.45B 0.01
2012-04-30 $0.02B $4.29B 0.01
2012-01-31 $0.02B $4.15B 0.01
2011-10-31 $0.02B $3.97B 0.01
2011-07-31 $0.02B $3.69B 0.01
2011-04-30 $0.02B $3.45B 0.01
2011-01-31 $0.02B $3.18B 0.01
2010-10-31 $0.02B $2.90B 0.01
2010-07-31 $0.02B $2.76B 0.01
2010-04-30 $0.02B $2.86B 0.01
2010-01-31 $0.02B $2.67B 0.01
2009-10-31 $0.03B $2.42B 0.01
2009-07-31 $0.03B $2.25B 0.01
2009-04-30 $0.03B $2.32B 0.01
2009-01-31 $0.03B $2.40B 0.01
2008-10-31 $0.00B $2.49B 0.00
2008-07-31 $0.00B $2.66B 0.00
2008-04-30 $0.00B $2.74B 0.00
2008-01-31 $0.00B $2.62B 0.00
2007-10-31 $0.00B $2.48B 0.00
2007-07-31 $0.00B $2.26B 0.00
2007-04-30 $0.00B $2.10B 0.00
2007-01-31 $0.00B $2.01B 0.00
2006-10-31 $0.00B $1.85B 0.00
2006-07-31 $0.00B $1.66B 0.00
2006-04-30 $0.00B $1.61B 0.00
2006-01-31 $0.00B $1.50B 0.00
2005-10-31 $0.00B $1.35B 0.00
2005-07-31 $0.00B $1.28B 0.00
2005-04-30 $0.00B $1.23B 0.00
2005-01-31 $0.00B $1.18B 0.00
Sector Industry Market Cap Revenue
Computer and Technology Semiconductor - General $90.396B $9.714B
NVIDIA Corporation is the worldwide leader in graphics processors and media communications devices. The NVIDIA? Tesla? accelerated computing platform gives modern data centers the power to accelerate both artificial intelligence and high-performance computing workloads. NVIDIA? DGX? Systems are built on the new, revolutionary NVIDIA Volta? GPU platform. Powered by NVIDIA? Tesla? GPUs and NVIDIA NVLink?, the HGX reference architecture standardizes the design of data centers accelerating AI in the cloud-from autonomous driving and personalized healthcare to superhuman voice recognition. NVIDIA GPU Cloud (NGC) is a GPU-accelerated platform that runs everywhere. Data scientists and researchers can now rapidly build, train, and deploy neural network models to address some of the most complicated AI challenges. Their researchers operate as a think tank, accelerating advances in product technologies, including AI innovations like facial animations and light transport.
Stock Name Country Market Cap PE Ratio
Intel (INTC) United States $221.659B 10.79
Texas Instruments (TXN) United States $90.810B 18.01
STMicroelectronics (STM) Switzerland $12.176B 9.77
Amtech Systems (ASYS) United States $0.072B 9.02